< < Back
Terminal Aerodrome Forecast


Current Version              Previous Versions:   1  2  3  4  5  6  7  8  9  

Terminal Aerodrome Forecast

378
FTUS42 KJAX 010100 AAA
TAFSSI
TAF AMD
KSSI 010125Z 0101/0124 15007KT P6SM FEW250
     FM010200 VRB06KT P6SM VCTS BKN035CB
      TEMPO 0102/0104 VRB12G22KT 6SM TSRA
     FM010400 VRB04KT P6SM FEW250
     FM011600 14008KT P6SM FEW250=



Latest METAR

428
SAUS70 KWBC 011100 RRJ
MTRSSI
METAR KSSI 011053Z AUTO 00000KT 10SM CLR 24/22 A3010 RMK AO2 SLP191
T02390222


USA.gov is the U.S. government's official web portal to all federal, state and local government web resources and services.